Hunnewell, Missouri
Current Conditions -  °F | °C
As of 10:15 AM on Thursday 29 Jan 2015 (Local Time) from KHAE Reporting Station
Overcast Overcast  
Wind Chill: 28°   Ceiling: 2000
Heat Index: 37°   Visibility: 10mi
Dew Point: 30°   Wind: 17mph
Humidity: 75%   Direction: 300°WNW
Pressure: 30.15"   Gusts: 24mph
Location:  39.67°N, 91.86°W
Report Text: KHAE 291615Z AUTO 30015G21KT 10SM OVC020 03/M01 A3015 RMK AO2
Loading
Personal Weather Stations






























Interactive Weather Map New forecast layout! Learn more

10-Day Weather Forecast

Advertisements
Track Severe Weather on mobile